Time;durP1;ratioP1;P1;durP2;ratioP2;P2;SDS_P1;SDS_P2;PMS_P1;PMS_P2;Temp;Humidity;BMP_temperature;BMP_pressure;BME280_temperature;BME280_humidity;BME280_pressure;Samples;Min_cycle;Max_cycle;Signal;HPM_P1;HPM_P2
2023/05/21 00:03:00;;;;;;;15.88;10.65;;;13.30;99.90;;;;;;7327778;32;20130;-56
2023/05/21 00:07:03;;;;;;;16.87;11.40;;;13.30;99.90;;;;;;7330626;32;20602;-56
2023/05/21 00:11:05;;;;;;;12.93;10.65;;;13.10;99.90;;;;;;7328401;32;20505;-56
2023/05/21 00:15:07;;;;;;;14.85;11.52;;;13.10;99.90;;;;;;7333165;32;20115;-56
2023/05/21 00:19:09;;;;;;;16.58;11.48;;;13.00;99.90;;;;;;7326572;32;20183;-56
2023/05/21 00:23:11;;;;;;;14.73;11.12;;;13.00;99.90;;;;;;7329795;32;20130;-57
2023/05/21 00:27:13;;;;;;;15.55;12.13;;;12.90;99.90;;;;;;7335160;32;20160;-56
2023/05/21 00:31:16;;;;;;;17.55;11.65;;;12.90;99.90;;;;;;7335243;32;20173;-56
2023/05/21 00:35:18;;;;;;;16.50;11.48;;;12.90;99.90;;;;;;7337842;32;20138;-56
2023/05/21 00:39:20;;;;;;;15.98;11.55;;;12.80;99.90;;;;;;7318149;32;20116;-56
2023/05/21 00:43:25;;;;;;;15.88;12.60;;;12.70;99.90;;;;;;7326113;32;20330;-56
2023/05/21 00:47:28;;;;;;;16.75;12.30;;;12.60;99.90;;;;;;7326143;32;20118;-57
2023/05/21 00:51:30;;;;;;;15.65;12.30;;;12.60;99.90;;;;;;7333117;32;20275;-56
2023/05/21 00:55:32;;;;;;;17.15;12.63;;;12.50;99.90;;;;;;7325803;32;20532;-56
2023/05/21 00:59:34;;;;;;;16.60;12.32;;;12.50;99.90;;;;;;7326081;32;20257;-57
2023/05/21 01:03:37;;;;;;;13.65;11.32;;;12.50;99.90;;;;;;7327522;32;20265;-57
2023/05/21 01:07:40;;;;;;;13.73;11.75;;;12.50;99.90;;;;;;7322828;32;20200;-57
2023/05/21 01:11:45;;;;;;;13.95;11.25;;;12.50;99.90;;;;;;7327668;32;20210;-57
2023/05/21 01:15:48;;;;;;;15.13;11.27;;;12.50;99.90;;;;;;7334015;32;20509;-57
2023/05/21 01:19:51;;;;;;;14.23;11.35;;;12.40;99.90;;;;;;7326082;32;20251;-57
2023/05/21 01:23:53;;;;;;;14.55;11.45;;;12.40;99.90;;;;;;7327731;32;20103;-57
2023/05/21 01:27:55;;;;;;;16.12;12.13;;;12.30;99.90;;;;;;7328864;32;20560;-56
2023/05/21 01:32:32;;;;;;;14.68;11.75;;;12.30;99.90;;;;;;7331069;32;20103;-56
2023/05/21 01:36:42;;;;;;;16.90;12.48;;;12.20;99.90;;;;;;7327269;32;20122;-56
2023/05/21 01:40:53;;;;;;;16.12;12.30;;;12.10;99.90;;;;;;7328770;32;20096;-57
2023/05/21 01:44:58;;;;;;;18.58;11.60;;;12.20;99.90;;;;;;7330130;32;20442;-56
2023/05/21 01:49:00;;;;;;;14.32;11.23;;;12.10;99.90;;;;;;7333305;32;20728;-56
2023/05/21 01:53:04;;;;;;;14.07;10.95;;;12.20;99.90;;;;;;7328826;32;20088;-56
2023/05/21 01:57:13;;;;;;;16.75;11.60;;;12.20;99.90;;;;;;7323011;32;20111;-57
2023/05/21 02:01:15;;;;;;;14.35;10.70;;;12.20;99.90;;;;;;7326059;32;20120;-56
2023/05/21 02:05:17;;;;;;;14.32;11.45;;;12.30;99.90;;;;;;7326304;32;20092;-56
2023/05/21 02:09:19;;;;;;;13.40;11.07;;;12.20;99.90;;;;;;7327278;32;20103;-56
2023/05/21 02:13:21;;;;;;;15.00;11.25;;;12.20;99.90;;;;;;7324867;32;20239;-56
2023/05/21 02:17:30;;;;;;;12.85;10.38;;;12.20;99.90;;;;;;7323879;32;20122;-56
2023/05/21 02:21:31;;;;;;;18.37;10.60;;;12.20;99.90;;;;;;7324063;32;20466;-56
2023/05/21 02:25:33;;;;;;;13.30;9.43;;;12.30;99.90;;;;;;7329172;32;20121;-56
2023/05/21 02:29:35;;;;;;;13.88;10.50;;;12.20;99.90;;;;;;7320858;32;20148;-56
2023/05/21 02:33:40;;;;;;;17.27;10.13;;;12.20;99.90;;;;;;7327301;32;20119;-56
2023/05/21 02:37:42;;;;;;;13.52;9.40;;;12.20;99.90;;;;;;7326929;32;20100;-56
2023/05/21 02:41:46;;;;;;;13.45;9.27;;;12.10;99.90;;;;;;7329378;32;20162;-56
2023/05/21 02:45:50;;;;;;;12.90;9.40;;;12.20;99.90;;;;;;7332718;32;20127;-56
2023/05/21 02:49:52;;;;;;;11.27;8.93;;;12.10;99.90;;;;;;7325135;32;20119;-56
2023/05/21 02:53:54;;;;;;;14.63;9.20;;;12.10;99.90;;;;;;7322568;32;20111;-56
2023/05/21 02:57:56;;;;;;;11.90;9.02;;;12.00;99.90;;;;;;7325278;32;20287;-56
2023/05/21 03:01:58;;;;;;;11.82;9.38;;;12.00;99.90;;;;;;7325007;32;20189;-55
2023/05/21 03:06:00;;;;;;;10.05;8.95;;;12.00;99.90;;;;;;7307093;32;20195;-55
2023/05/21 03:10:02;;;;;;;12.90;9.38;;;12.10;99.90;;;;;;7323233;32;20148;-56
2023/05/21 03:14:05;;;;;;;13.95;10.13;;;12.00;99.90;;;;;;7321939;32;20452;-55
2023/05/21 03:18:06;;;;;;;14.07;9.93;;;11.90;99.90;;;;;;7329955;32;20131;-55
2023/05/21 03:22:10;;;;;;;12.20;9.85;;;12.00;99.90;;;;;;7328466;32;20127;-55
2023/05/21 03:26:12;;;;;;;15.23;9.63;;;11.90;99.90;;;;;;7323631;32;20669;-55
2023/05/21 03:30:14;;;;;;;10.88;9.40;;;11.80;99.90;;;;;;7321901;32;20126;-56
2023/05/21 03:34:18;;;;;;;11.65;8.65;;;11.80;99.90;;;;;;7311652;32;20123;-55
2023/05/21 03:38:20;;;;;;;15.60;9.48;;;11.80;99.90;;;;;;7331127;32;20178;-57
2023/05/21 03:42:22;;;;;;;10.35;9.05;;;11.70;99.90;;;;;;7327982;32;20183;-55
2023/05/21 03:46:25;;;;;;;11.60;9.50;;;11.80;99.90;;;;;;7337465;32;20107;-56
2023/05/21 03:50:26;;;;;;;13.10;9.40;;;11.70;99.90;;;;;;7329828;32;20100;-55
2023/05/21 03:54:29;;;;;;;13.50;10.00;;;11.80;99.90;;;;;;7332349;32;20627;-55
2023/05/21 03:58:31;;;;;;;11.60;9.07;;;11.80;99.90;;;;;;7326452;32;20134;-57
2023/05/21 04:02:33;;;;;;;14.30;9.40;;;11.80;99.90;;;;;;7333034;32;20178;-57
2023/05/21 04:06:35;;;;;;;11.90;9.65;;;11.80;99.90;;;;;;7317688;32;20224;-55
2023/05/21 04:10:37;;;;;;;11.20;9.57;;;11.80;99.90;;;;;;7329057;32;20137;-56
2023/05/21 04:14:39;;;;;;;12.15;9.38;;;11.80;99.90;;;;;;7329010;32;20703;-55
2023/05/21 04:18:41;;;;;;;11.43;9.32;;;11.80;99.90;;;;;;7329039;32;20497;-57
2023/05/21 04:22:46;;;;;;;10.93;8.95;;;11.90;99.90;;;;;;7312541;32;20132;-55
2023/05/21 04:26:48;;;;;;;12.73;9.15;;;11.90;99.90;;;;;;7327766;32;20212;-55
2023/05/21 04:30:50;;;;;;;13.40;9.63;;;12.00;99.90;;;;;;7326608;32;20157;-56
2023/05/21 04:34:52;;;;;;;9.35;8.38;;;12.00;99.90;;;;;;7333161;32;20194;-55
2023/05/21 04:38:54;;;;;;;12.27;9.88;;;12.00;99.90;;;;;;7331789;32;20149;-56
2023/05/21 04:42:56;;;;;;;13.07;9.30;;;12.00;99.90;;;;;;7329665;32;20108;-56
2023/05/21 04:46:59;;;;;;;12.32;9.70;;;12.10;99.90;;;;;;7316043;32;20111;-55
2023/05/21 04:51:04;;;;;;;13.70;9.02;;;12.10;99.90;;;;;;7318028;32;20123;-56
2023/05/21 04:55:07;;;;;;;11.45;9.23;;;12.10;99.90;;;;;;7309877;32;20206;-55
2023/05/21 04:59:09;;;;;;;12.18;9.57;;;12.20;99.90;;;;;;7329105;32;20162;-55
2023/05/21 05:03:12;;;;;;;13.27;10.00;;;12.30;99.90;;;;;;7335717;32;20108;-55
2023/05/21 05:07:14;;;;;;;13.18;9.25;;;12.30;99.90;;;;;;7329672;32;20689;-56
2023/05/21 05:11:16;;;;;;;11.73;9.10;;;12.40;99.90;;;;;;7338416;32;20095;-56
2023/05/21 05:15:18;;;;;;;13.80;9.02;;;12.50;99.90;;;;;;7336082;32;20104;-56
2023/05/21 05:19:19;;;;;;;12.25;9.10;;;12.50;99.90;;;;;;7315481;32;20208;-55
2023/05/21 05:23:21;;;;;;;10.82;8.75;;;12.50;99.90;;;;;;7327284;32;20210;-57
2023/05/21 05:27:23;;;;;;;11.48;9.15;;;12.60;99.90;;;;;;7328318;32;20293;-55
2023/05/21 05:31:25;;;;;;;11.18;8.85;;;12.60;99.90;;;;;;7335696;32;20546;-55
2023/05/21 05:35:26;;;;;;;11.60;8.93;;;12.80;99.90;;;;;;7332275;32;20179;-55
2023/05/21 05:39:28;;;;;;;11.00;9.10;;;12.80;99.90;;;;;;7329340;32;20110;-55
2023/05/21 05:43:30;;;;;;;11.15;8.57;;;13.00;99.90;;;;;;7331884;32;20206;-56
2023/05/21 05:47:32;;;;;;;11.40;9.55;;;13.00;99.90;;;;;;7328967;32;20126;-56
2023/05/21 05:51:34;;;;;;;9.18;8.27;;;13.00;99.90;;;;;;7316636;32;20288;-55
2023/05/21 05:55:36;;;;;;;11.73;9.52;;;13.00;99.90;;;;;;7330774;32;20115;-56
2023/05/21 05:59:39;;;;;;;10.32;8.45;;;13.00;99.90;;;;;;7327046;32;20129;-56
2023/05/21 06:03:40;;;;;;;11.63;9.48;;;13.10;99.90;;;;;;7324122;32;20458;-56
2023/05/21 06:07:42;;;;;;;13.25;9.77;;;13.20;99.90;;;;;;7322117;32;20190;-56
2023/05/21 06:11:44;;;;;;;11.30;9.75;;;13.20;99.90;;;;;;7331238;32;20111;-59
2023/05/21 06:15:46;;;;;;;10.13;8.60;;;13.20;99.90;;;;;;7335426;32;20781;-57
2023/05/21 06:19:48;;;;;;;12.75;9.45;;;13.30;99.90;;;;;;7324652;32;20676;-58
2023/05/21 06:23:49;;;;;;;10.07;8.95;;;13.30;99.90;;;;;;7332334;32;20164;-57
2023/05/21 06:27:51;;;;;;;12.65;9.30;;;13.40;99.90;;;;;;7340527;32;20569;-58
2023/05/21 06:31:53;;;;;;;10.50;8.73;;;13.50;99.90;;;;;;7335290;32;20301;-58
2023/05/21 06:35:55;;;;;;;13.00;9.82;;;13.70;99.90;;;;;;7334024;32;20595;-58
2023/05/21 06:39:56;;;;;;;10.30;8.98;;;13.80;99.90;;;;;;7327552;32;20133;-58
2023/05/21 06:43:58;;;;;;;10.25;8.73;;;14.00;99.90;;;;;;7336351;32;20103;-58
2023/05/21 06:48:00;;;;;;;12.80;9.35;;;14.00;99.90;;;;;;7327579;32;20192;-59
2023/05/21 06:52:02;;;;;;;10.80;9.32;;;14.10;99.90;;;;;;7327356;32;20130;-58
2023/05/21 06:56:04;;;;;;;14.65;8.70;;;14.30;99.90;;;;;;7325752;32;20107;-58
2023/05/21 07:00:08;;;;;;;11.65;8.57;;;14.40;99.90;;;;;;7324088;32;20111;-60
2023/05/21 07:04:10;;;;;;;10.88;8.88;;;14.50;99.90;;;;;;7322593;32;20130;-57
2023/05/21 07:08:11;;;;;;;10.63;8.98;;;14.80;99.90;;;;;;7319348;32;20240;-58
2023/05/21 07:12:13;;;;;;;10.48;9.05;;;14.90;99.90;;;;;;7338633;32;20115;-58
2023/05/21 07:16:16;;;;;;;11.80;8.75;;;15.10;99.90;;;;;;7334137;32;20091;-57
2023/05/21 07:20:18;;;;;;;13.45;9.55;;;15.40;99.90;;;;;;7335007;32;20104;-58
2023/05/21 07:24:20;;;;;;;12.73;8.95;;;15.30;99.90;;;;;;7332113;32;20692;-58
2023/05/21 07:28:22;;;;;;;10.98;9.40;;;15.30;99.90;;;;;;7332828;32;20119;-58
2023/05/21 07:32:25;;;;;;;11.20;9.52;;;15.00;99.90;;;;;;7315725;32;20264;-59
2023/05/21 07:36:28;;;;;;;20.98;16.70;;;15.10;99.90;;;;;;7330172;32;20560;-57
2023/05/21 07:40:30;;;;;;;12.25;10.45;;;15.40;99.90;;;;;;7334601;32;20096;-57
2023/05/21 07:44:31;;;;;;;11.70;10.50;;;15.40;99.90;;;;;;7332288;32;20493;-58
2023/05/21 07:48:33;;;;;;;14.57;10.55;;;15.30;99.90;;;;;;7330967;32;20624;-57
2023/05/21 07:52:36;;;;;;;13.35;10.40;;;15.50;99.90;;;;;;7333148;32;20149;-57
2023/05/21 07:56:38;;;;;;;14.90;10.40;;;15.70;99.90;;;;;;7336014;32;20103;-57
2023/05/21 08:00:45;;;;;;;15.63;12.35;;;15.80;99.90;;;;;;7332320;32;20165;-57
2023/05/21 08:04:47;;;;;;;12.80;10.88;;;16.00;99.90;;;;;;7336330;32;20207;-57
2023/05/21 08:08:49;;;;;;;12.93;11.52;;;16.20;99.90;;;;;;7335437;32;20541;-58
2023/05/21 08:12:51;;;;;;;13.75;11.12;;;16.40;99.90;;;;;;7336283;32;20640;-61
2023/05/21 08:16:53;;;;;;;13.38;10.38;;;16.60;99.90;;;;;;7318955;32;20255;-62
2023/05/21 08:20:55;;;;;;;13.27;11.88;;;16.70;99.90;;;;;;7316002;32;20127;-58
2023/05/21 08:24:57;;;;;;;14.87;11.12;;;17.20;99.90;;;;;;7327403;32;20126;-58
2023/05/21 08:28:59;;;;;;;14.87;10.70;;;17.20;99.90;;;;;;7331285;32;20164;-57
2023/05/21 08:33:01;;;;;;;16.00;10.77;;;17.40;99.90;;;;;;7323289;32;20116;-58
2023/05/21 08:37:03;;;;;;;14.43;10.95;;;17.30;99.90;;;;;;7329239;32;20130;-57
2023/05/21 08:41:06;;;;;;;12.07;10.80;;;17.80;99.90;;;;;;7341265;32;20111;-58
2023/05/21 08:45:11;;;;;;;13.02;10.40;;;17.80;99.90;;;;;;7315007;32;20707;-58
2023/05/21 08:49:17;;;;;;;13.10;11.70;;;17.90;99.90;;;;;;7328767;32;20114;-58
2023/05/21 08:53:20;;;;;;;12.57;11.05;;;17.70;99.90;;;;;;7314714;32;20127;-59
2023/05/21 08:57:30;;;;;;;15.48;12.30;;;18.10;99.90;;;;;;7331538;32;20111;-57
2023/05/21 09:01:33;;;;;;;16.37;11.85;;;18.70;99.90;;;;;;7322888;32;20127;-58
2023/05/21 09:05:41;;;;;;;12.80;11.50;;;18.70;99.90;;;;;;7323201;32;20817;-58
2023/05/21 09:10:11;;;;;;;14.27;12.57;;;19.00;99.90;;;;;;7333980;32;20235;-58
2023/05/21 09:14:14;;;;;;;13.07;11.68;;;19.10;99.90;;;;;;7326710;32;20112;-58
2023/05/21 09:18:16;;;;;;;16.62;14.15;;;19.30;99.90;;;;;;7325691;32;20326;-59
2023/05/21 09:22:22;;;;;;;14.32;12.82;;;19.40;99.90;;;;;;7329502;32;20132;-56
2023/05/21 09:26:25;;;;;;;12.60;11.30;;;19.00;99.90;;;;;;7334017;32;20157;-58
2023/05/21 09:30:27;;;;;;;15.90;11.45;;;19.20;99.90;;;;;;7333090;32;20234;-57
2023/05/21 09:34:35;;;;;;;13.18;11.02;;;19.20;99.90;;;;;;7335394;32;20103;-57
2023/05/21 09:38:37;;;;;;;13.80;12.30;;;19.90;99.90;;;;;;7332673;32;20534;-58
2023/05/21 09:42:40;;;;;;;13.70;12.00;;;19.40;99.90;;;;;;7327847;32;20247;-58
2023/05/21 09:46:42;;;;;;;17.00;11.00;;;19.50;99.90;;;;;;7333174;32;20288;-58
2023/05/21 09:50:44;;;;;;;14.45;12.95;;;20.30;99.90;;;;;;7325866;32;21147;-58
2023/05/21 09:54:46;;;;;;;13.18;11.73;;;20.80;99.90;;;;;;7332119;32;20158;-58
2023/05/21 09:58:53;;;;;;;13.88;11.93;;;20.90;99.90;;;;;;7329355;32;20129;-59
2023/05/21 10:02:59;;;;;;;14.10;12.48;;;21.50;99.90;;;;;;7329783;32;20253;-59
2023/05/21 10:07:01;;;;;;;15.15;12.37;;;21.40;99.90;;;;;;7330664;32;20114;-58
2023/05/21 10:11:05;;;;;;;14.32;12.50;;;21.40;99.90;;;;;;7326544;32;20119;-58
2023/05/21 10:15:10;;;;;;;13.85;12.37;;;21.40;99.90;;;;;;7326864;32;20485;-59
2023/05/21 10:19:14;;;;;;;15.80;12.82;;;21.90;99.90;;;;;;7310753;32;20265;-59
2023/05/21 10:23:17;;;;;;;12.95;11.65;;;21.90;99.90;;;;;;7328760;32;20103;-58
2023/05/21 10:27:21;;;;;;;14.95;12.50;;;22.10;99.90;;;;;;7326999;32;20107;-59
2023/05/21 10:31:25;;;;;;;15.48;12.43;;;22.00;99.90;;;;;;7331054;32;20229;-59
2023/05/21 10:35:28;;;;;;;17.27;14.48;;;21.70;99.90;;;;;;7319049;32;20726;-58
2023/05/21 10:39:32;;;;;;;17.27;14.90;;;21.60;99.90;;;;;;7327226;32;21212;-58
2023/05/21 10:44:13;;;;;;;21.15;14.40;;;21.50;99.90;;;;;;7330559;32;20210;-59
2023/05/21 10:48:42;;;;;;;18.52;13.68;;;21.80;99.90;;;;;;7311892;32;20267;-59
2023/05/21 10:53:11;;;;;;;16.23;13.32;;;22.30;99.90;;;;;;7325211;32;20672;-59
2023/05/21 10:57:13;;;;;;;15.65;13.90;;;22.50;99.90;;;;;;7307669;32;20376;-59
2023/05/21 11:01:18;;;;;;;16.00;14.35;;;22.00;99.90;;;;;;7313139;32;20145;-59
2023/05/21 11:05:50;;;;;;;15.40;13.23;;;22.30;99.90;;;;;;7323852;32;20107;-58
2023/05/21 11:09:52;;;;;;;17.17;13.32;;;22.60;99.90;;;;;;7308408;32;20104;-59
2023/05/21 11:13:54;;;;;;;15.73;14.05;;;22.40;99.90;;;;;;7325991;32;20327;-59
2023/05/21 11:17:55;;;;;;;17.12;13.85;;;22.50;99.90;;;;;;7297874;32;20591;-58
2023/05/21 11:21:57;;;;;;;18.83;13.18;;;21.90;99.90;;;;;;7326173;32;20256;-58
2023/05/21 11:26:02;;;;;;;15.68;14.00;;;22.20;99.90;;;;;;7326931;32;20140;-58
2023/05/21 11:30:07;;;;;;;15.20;12.50;;;22.10;99.90;;;;;;7324355;32;20191;-58
2023/05/21 11:34:13;;;;;;;16.62;10.85;;;22.50;99.90;;;;;;7314874;32;20134;-57
2023/05/21 11:38:16;;;;;;;15.57;12.45;;;22.70;99.90;;;;;;7310889;32;20236;-60
2023/05/21 11:42:38;;;;;;;17.23;13.40;;;22.70;99.90;;;;;;7330776;32;20115;-60
2023/05/21 11:46:40;;;;;;;12.25;11.02;;;23.10;99.90;;;;;;7328301;32;20661;-59
2023/05/21 11:50:41;;;;;;;14.57;12.93;;;23.30;99.90;;;;;;7332979;32;20128;-60
2023/05/21 11:54:47;;;;;;;14.48;12.37;;;23.20;99.90;;;;;;7316701;32;20195;-60
2023/05/21 11:58:48;;;;;;;15.77;14.13;;;23.20;99.90;;;;;;7329714;32;20157;-60
2023/05/21 12:02:51;;;;;;;16.90;13.62;;;23.20;99.90;;;;;;7333040;32;20116;-60
2023/05/21 12:06:57;;;;;;;17.30;12.88;;;23.90;99.90;;;;;;7336066;32;20203;-59
2023/05/21 12:11:00;;;;;;;16.30;13.75;;;24.90;99.90;;;;;;7331815;32;20135;-60
2023/05/21 12:15:03;;;;;;;15.15;13.55;;;24.70;99.90;;;;;;7333039;32;20135;-59
2023/05/21 12:19:05;;;;;;;18.33;14.70;;;25.30;99.90;;;;;;7325326;32;20225;-60
2023/05/21 12:23:07;;;;;;;18.50;13.82;;;24.00;99.90;;;;;;7336678;32;20264;-60
2023/05/21 12:27:11;;;;;;;15.85;13.38;;;23.70;99.90;;;;;;7335426;32;20103;-60
2023/05/21 12:31:15;;;;;;;13.73;11.38;;;24.50;99.90;;;;;;7325268;32;20345;-60
2023/05/21 12:35:21;;;;;;;16.45;12.80;;;25.80;99.90;;;;;;7329615;32;20194;-60
2023/05/21 12:39:23;;;;;;;13.18;11.25;;;25.10;99.90;;;;;;7335373;32;20134;-60
2023/05/21 12:43:30;;;;;;;14.93;12.60;;;25.90;99.90;;;;;;7324063;32;20241;-61
2023/05/21 12:47:33;;;;;;;12.57;11.38;;;26.50;99.90;;;;;;7329689;32;20147;-60
2023/05/21 12:51:38;;;;;;;16.42;12.65;;;26.40;99.90;;;;;;7312573;32;20207;-61
2023/05/21 12:55:40;;;;;;;14.57;11.53;;;26.30;99.90;;;;;;7332105;32;20165;-62
2023/05/21 12:59:51;;;;;;;15.00;13.50;;;25.80;99.90;;;;;;7328284;32;20150;-58
2023/05/21 13:03:52;;;;;;;17.37;14.07;;;24.60;99.90;;;;;;7323285;32;20112;-58
2023/05/21 13:07:54;;;;;;;16.95;13.43;;;24.50;99.90;;;;;;7314892;32;20237;-58
2023/05/21 13:11:56;;;;;;;12.70;11.40;;;24.10;99.90;;;;;;7333597;32;20207;-59
2023/05/21 13:16:00;;;;;;;16.00;12.35;;;24.40;99.90;;;;;;7325872;32;20133;-57
2023/05/21 13:20:17;;;;;;;18.25;16.35;;;24.90;99.90;;;;;;7336414;32;20107;-57
2023/05/21 13:24:18;;;;;;;14.15;12.65;;;23.70;99.90;;;;;;7326606;32;20107;-57
2023/05/21 13:28:22;;;;;;;13.82;12.37;;;23.90;99.90;;;;;;7331124;32;20568;-57
2023/05/21 13:32:24;;;;;;;18.87;14.40;;;24.40;99.90;;;;;;7334791;32;22318;-58
2023/05/21 13:36:26;;;;;;;14.75;13.35;;;24.60;99.90;;;;;;7331183;32;20107;-57
2023/05/21 13:40:28;;;;;;;19.42;14.10;;;24.00;99.90;;;;;;7331130;32;20477;-58
2023/05/21 13:44:32;;;;;;;17.08;14.05;;;23.50;99.90;;;;;;7332299;32;20116;-58
2023/05/21 13:48:34;;;;;;;18.65;14.55;;;23.30;99.90;;;;;;7327928;32;20133;-57
2023/05/21 13:52:36;;;;;;;16.15;14.10;;;23.50;99.90;;;;;;7318405;32;20534;-58
2023/05/21 13:56:38;;;;;;;17.08;15.02;;;23.80;99.90;;;;;;7332720;32;20531;-57
2023/05/21 14:00:41;;;;;;;14.75;13.15;;;24.20;99.90;;;;;;7324671;32;20142;-58
2023/05/21 14:04:43;;;;;;;14.38;12.75;;;24.70;99.90;;;;;;7330437;32;20281;-57
2023/05/21 14:08:45;;;;;;;16.25;12.48;;;25.50;99.90;;;;;;7328147;32;20441;-58
2023/05/21 14:12:47;;;;;;;17.00;13.07;;;25.70;99.90;;;;;;7329553;32;20513;-58
2023/05/21 14:16:50;;;;;;;13.55;11.95;;;26.10;99.90;;;;;;7312590;32;20157;-59
2023/05/21 14:20:52;;;;;;;15.32;11.95;;;26.50;99.90;;;;;;7317657;32;20229;-59
2023/05/21 14:24:54;;;;;;;14.02;11.82;;;26.40;99.90;;;;;;7325972;32;20127;-58
2023/05/21 14:28:56;;;;;;;14.13;11.32;;;26.50;99.90;;;;;;7330721;32;20116;-58
2023/05/21 14:32:58;;;;;;;14.02;12.50;;;26.40;99.90;;;;;;7318678;32;20220;-58
2023/05/21 14:37:00;;;;;;;13.45;12.05;;;25.70;99.90;;;;;;7334460;32;20162;-59
2023/05/21 14:41:02;;;;;;;15.93;12.32;;;25.60;99.90;;;;;;7315496;32;20569;-58
2023/05/21 14:45:05;;;;;;;12.30;10.45;;;25.70;99.90;;;;;;7323484;32;20169;-58
2023/05/21 14:49:19;;;;;;;12.27;10.43;;;26.20;99.90;;;;;;7322328;32;20130;-57
2023/05/21 14:53:21;;;;;;;13.65;10.68;;;27.10;99.90;;;;;;7315872;32;20131;-58
2023/05/21 14:57:23;;;;;;;11.02;9.25;;;26.50;99.90;;;;;;7306681;32;21111;-57
2023/05/21 15:01:24;;;;;;;14.07;10.68;;;26.60;99.90;;;;;;7323152;32;20112;-56
2023/05/21 15:05:28;;;;;;;13.25;11.77;;;26.10;99.90;;;;;;7327058;32;20168;-56
2023/05/21 15:09:30;;;;;;;15.35;11.68;;;26.60;99.90;;;;;;7307778;32;20099;-56
2023/05/21 15:13:31;;;;;;;13.85;12.27;;;25.30;99.90;;;;;;7322680;32;20149;-56
2023/05/21 15:17:34;;;;;;;14.30;11.77;;;24.90;99.90;;;;;;7312642;32;20576;-58
2023/05/21 15:21:37;;;;;;;14.98;12.63;;;24.70;99.90;;;;;;7326991;32;20243;-57
2023/05/21 15:25:39;;;;;;;15.60;12.48;;;23.90;99.90;;;;;;7328426;32;20205;-58
2023/05/21 15:29:40;;;;;;;13.77;11.57;;;24.00;99.90;;;;;;7313649;32;20120;-58
2023/05/21 15:33:42;;;;;;;16.17;12.80;;;23.60;99.90;;;;;;7333663;32;20194;-58
2023/05/21 15:37:44;;;;;;;14.18;12.35;;;23.60;99.90;;;;;;7328106;32;20099;-57
2023/05/21 15:41:46;;;;;;;15.40;13.55;;;23.50;99.90;;;;;;7315950;32;20188;-57
2023/05/21 15:45:48;;;;;;;15.10;11.55;;;23.30;99.90;;;;;;7333333;32;20198;-58
2023/05/21 15:49:50;;;;;;;12.75;11.43;;;23.10;99.90;;;;;;7335772;32;20880;-58
2023/05/21 15:53:52;;;;;;;13.00;11.50;;;23.00;99.90;;;;;;7333895;32;20103;-58
2023/05/21 15:57:54;;;;;;;15.65;12.32;;;23.10;99.90;;;;;;7332983;32;20103;-58
2023/05/21 16:01:56;;;;;;;14.50;12.50;;;23.10;99.90;;;;;;7337196;32;20254;-57
2023/05/21 16:05:58;;;;;;;17.10;12.32;;;22.90;99.90;;;;;;7336276;32;20461;-59
2023/05/21 16:10:00;;;;;;;14.27;12.25;;;22.90;99.90;;;;;;7331802;32;20509;-57
2023/05/21 16:14:02;;;;;;;15.05;12.20;;;22.70;99.90;;;;;;7329710;32;20627;-58
2023/05/21 16:18:03;;;;;;;15.90;12.68;;;22.70;99.90;;;;;;7326094;32;20222;-58
2023/05/21 16:22:05;;;;;;;14.68;12.75;;;22.70;99.90;;;;;;7334757;32;20652;-56
2023/05/21 16:26:08;;;;;;;13.88;12.48;;;22.60;99.90;;;;;;7317852;32;20146;-57
2023/05/21 16:30:10;;;;;;;15.80;13.70;;;22.60;99.90;;;;;;7336230;32;20163;-57
2023/05/21 16:34:12;;;;;;;13.93;12.30;;;22.60;99.90;;;;;;7334977;32;20130;-58
2023/05/21 16:38:15;;;;;;;13.23;11.93;;;22.60;99.90;;;;;;7335228;32;20283;-57
2023/05/21 16:42:16;;;;;;;16.45;11.93;;;22.40;99.90;;;;;;7333318;32;20118;-57
2023/05/21 16:46:18;;;;;;;13.77;10.93;;;22.40;99.90;;;;;;7332704;32;20969;-57
2023/05/21 16:50:20;;;;;;;15.52;11.80;;;22.40;99.90;;;;;;7334332;32;20186;-58
2023/05/21 16:54:22;;;;;;;14.38;12.60;;;22.40;99.90;;;;;;7324740;32;20564;-58
2023/05/21 16:58:24;;;;;;;13.00;11.68;;;22.40;99.90;;;;;;7336254;32;20223;-57
2023/05/21 17:02:26;;;;;;;12.95;11.55;;;22.30;99.90;;;;;;7335598;32;20099;-57
2023/05/21 17:06:28;;;;;;;14.32;11.93;;;22.20;99.90;;;;;;7330752;32;20470;-57
2023/05/21 17:10:31;;;;;;;14.87;13.27;;;22.10;99.90;;;;;;7337049;32;20185;-57
2023/05/21 17:14:33;;;;;;;13.62;12.23;;;22.10;99.90;;;;;;7327713;32;20152;-58
2023/05/21 17:18:38;;;;;;;12.30;11.10;;;22.10;99.90;;;;;;7318828;32;20096;-58
2023/05/21 17:22:39;;;;;;;16.20;11.15;;;22.20;99.90;;;;;;7330678;32;20107;-58
2023/05/21 17:26:41;;;;;;;13.25;11.48;;;22.10;99.90;;;;;;7330592;32;20211;-59
2023/05/21 17:30:43;;;;;;;13.27;11.52;;;22.10;99.90;;;;;;7327280;32;20635;-58
2023/05/21 17:34:46;;;;;;;13.07;11.75;;;22.00;99.90;;;;;;7328923;32;20110;-58
2023/05/21 17:38:49;;;;;;;33.70;28.62;;;22.00;99.90;;;;;;7328563;32;20095;-57
2023/05/21 17:42:51;;;;;;;14.93;12.00;;;22.00;99.90;;;;;;7327436;32;20132;-58
2023/05/21 17:46:55;;;;;;;15.60;12.25;;;22.00;99.90;;;;;;7329330;32;20103;-58
2023/05/21 17:50:57;;;;;;;13.68;12.00;;;21.90;99.90;;;;;;7325899;32;20153;-57
2023/05/21 17:55:00;;;;;;;13.60;11.82;;;22.00;99.90;;;;;;7331720;32;20091;-57
2023/05/21 17:59:01;;;;;;;13.02;11.73;;;21.90;99.90;;;;;;7339229;32;20150;-59
2023/05/21 18:03:03;;;;;;;15.02;11.90;;;21.90;99.90;;;;;;7323518;32;20556;-58
2023/05/21 18:07:06;;;;;;;16.12;12.13;;;21.80;99.90;;;;;;7332437;32;20107;-58
2023/05/21 18:11:07;;;;;;;13.62;12.23;;;21.70;99.90;;;;;;7332829;32;20103;-57
2023/05/21 18:15:09;;;;;;;16.15;13.30;;;21.70;99.90;;;;;;7336247;32;20568;-56
2023/05/21 18:19:11;;;;;;;14.43;12.70;;;21.70;99.90;;;;;;7328349;32;20221;-57
2023/05/21 18:23:13;;;;;;;14.02;12.48;;;21.60;99.90;;;;;;7332558;32;20120;-58
2023/05/21 18:27:15;;;;;;;14.35;12.48;;;21.50;99.90;;;;;;7334089;32;20207;-56
2023/05/21 18:31:17;;;;;;;15.05;12.93;;;21.40;99.90;;;;;;7323992;32;20107;-56
2023/05/21 18:35:19;;;;;;;13.35;11.95;;;21.30;99.90;;;;;;7326968;32;20301;-56
2023/05/21 18:39:23;;;;;;;13.70;12.05;;;21.20;99.90;;;;;;7319654;32;20145;-58
2023/05/21 18:43:25;;;;;;;13.95;12.23;;;21.10;99.90;;;;;;7335766;32;20156;-57
2023/05/21 18:47:27;;;;;;;14.02;12.02;;;21.00;99.90;;;;;;7327208;32;20233;-57
2023/05/21 18:51:28;;;;;;;16.17;13.43;;;21.00;99.90;;;;;;7331027;32;20345;-57
2023/05/21 18:55:30;;;;;;;15.18;13.23;;;20.90;99.90;;;;;;7332699;32;20161;-58
2023/05/21 18:59:32;;;;;;;16.75;13.57;;;20.80;99.90;;;;;;7325170;32;20245;-57
2023/05/21 19:03:34;;;;;;;17.60;13.23;;;20.80;99.90;;;;;;7329933;32;20124;-57
2023/05/21 19:07:36;;;;;;;15.43;13.23;;;20.80;99.90;;;;;;7331194;32;20213;-56
2023/05/21 19:11:38;;;;;;;15.57;13.77;;;20.80;99.90;;;;;;7326333;32;20487;-57
2023/05/21 19:15:40;;;;;;;17.65;14.73;;;20.80;99.90;;;;;;7315721;32;20151;-57
2023/05/21 19:19:41;;;;;;;15.85;13.75;;;20.80;99.90;;;;;;7332219;32;20181;-58
2023/05/21 19:23:43;;;;;;;16.52;14.30;;;20.60;99.90;;;;;;7331725;32;20234;-57
2023/05/21 19:27:55;;;;;;;15.95;14.27;;;20.60;99.90;;;;;;7324363;32;20112;-57
2023/05/21 19:31:57;;;;;;;18.15;14.52;;;20.40;99.90;;;;;;7330286;32;20515;-58
2023/05/21 19:35:59;;;;;;;15.60;13.82;;;20.40;99.90;;;;;;7326421;32;20119;-57
2023/05/21 19:40:01;;;;;;;14.93;13.43;;;20.30;99.90;;;;;;7329074;32;20175;-57
2023/05/21 19:44:03;;;;;;;16.00;14.32;;;20.20;99.90;;;;;;7329503;32;20104;-56
2023/05/21 19:48:05;;;;;;;17.05;14.85;;;20.10;99.90;;;;;;7332744;32;20088;-56
2023/05/21 19:52:09;;;;;;;20.88;17.00;;;20.20;99.90;;;;;;7332093;32;20715;-56
2023/05/21 19:56:10;;;;;;;19.92;17.02;;;20.10;99.90;;;;;;7327184;32;20103;-58
2023/05/21 20:00:13;;;;;;;21.10;18.15;;;19.90;99.90;;;;;;7314624;32;20138;-56
2023/05/21 20:04:15;;;;;;;21.50;19.20;;;19.70;99.90;;;;;;7324080;32;20122;-56
2023/05/21 20:08:17;;;;;;;22.20;19.58;;;19.50;99.90;;;;;;7328594;32;20178;-55
2023/05/21 20:12:18;;;;;;;28.50;22.62;;;19.40;99.90;;;;;;7326930;32;20112;-55
2023/05/21 20:16:21;;;;;;;29.67;23.38;;;19.20;99.90;;;;;;7312504;32;22558;-56
2023/05/21 20:20:25;;;;;;;31.77;25.83;;;18.90;99.90;;;;;;7336026;32;20108;-57
2023/05/21 20:24:27;;;;;;;33.05;26.48;;;18.70;99.90;;;;;;7331768;32;20520;-56
2023/05/21 20:28:29;;;;;;;32.47;27.98;;;18.70;99.90;;;;;;7326813;32;20683;-56
2023/05/21 20:32:30;;;;;;;34.10;27.80;;;18.30;99.90;;;;;;7324231;32;20120;-57
2023/05/21 20:36:34;;;;;;;36.50;29.15;;;18.30;99.90;;;;;;7332674;32;20491;-57